Time,TemperatureF,DewpointF,PressureIn,WindDirection,WindDirectionDegrees,WindSpeedMPH,WindSpeedGustMPH,Humidity,HourlyPrecipIn,Conditions,Clouds,dailyrainin,SoftwareType,DateUTC
2013-03-13 00:00:00,34.9,23.9,30.30,SW,225,2.0,5.0,64,0.00,,,0.00,meteohub,2013-03-13 05:00:00,
2013-03-13 00:05:00,34.9,23.9,30.31,West,270,2.0,5.0,64,0.00,,,0.00,meteohub,2013-03-13 05:05:00,
2013-03-13 00:10:00,34.7,23.7,30.31,WNW,293,4.0,4.0,64,0.00,,,0.00,meteohub,2013-03-13 05:10:00,
2013-03-13 00:15:00,34.7,23.7,30.31,WSW,248,2.0,4.0,64,0.00,,,0.00,meteohub,2013-03-13 05:15:00,
2013-03-13 00:20:00,34.3,23.7,30.31,West,270,2.0,4.0,65,0.00,,,0.00,meteohub,2013-03-13 05:20:00,
2013-03-13 00:25:00,34.2,23.5,30.30,WSW,248,3.0,4.0,65,0.00,,,0.00,meteohub,2013-03-13 05:25:00,
2013-03-13 00:30:00,34.2,23.5,30.30,NW,315,0.0,4.0,65,0.00,,,0.00,meteohub,2013-03-13 05:30:00,
2013-03-13 00:35:00,34.0,23.5,30.30,SW,225,2.0,4.0,65,0.00,,,0.00,meteohub,2013-03-13 05:35:00,
2013-03-13 00:40:00,33.6,23.2,30.31,NW,315,2.0,2.0,65,0.00,,,0.00,meteohub,2013-03-13 05:40:00,
2013-03-13 00:45:00,33.6,23.5,30.31,West,270,2.0,2.0,66,0.00,,,0.00,meteohub,2013-03-13 05:45:00,
2013-03-13 00:50:00,33.3,23.2,30.31,WSW,248,0.0,2.0,66,0.00,,,0.00,meteohub,2013-03-13 05:50:00,
2013-03-13 00:55:00,33.1,23.0,30.31,WNW,293,0.0,2.0,66,0.00,,,0.00,meteohub,2013-03-13 05:55:00,
2013-03-13 01:00:00,32.7,22.6,30.31,WSW,248,0.0,2.0,66,0.00,,,0.00,meteohub,2013-03-13 06:00:00,
2013-03-13 01:05:00,32.5,22.5,30.31,SW,225,0.0,0.0,66,0.00,,,0.00,meteohub,2013-03-13 06:05:00,
2013-03-13 01:10:00,32.2,22.5,30.31,WSW,248,0.0,0.0,67,0.00,,,0.00,meteohub,2013-03-13 06:10:00,
2013-03-13 01:16:00,31.8,22.1,30.31,WSW,248,0.0,0.0,67,0.00,,,0.00,meteohub,2013-03-13 06:16:00,
2013-03-13 01:21:00,31.5,21.7,30.31,NW,315,0.0,0.0,67,0.00,,,0.00,meteohub,2013-03-13 06:21:00,
2013-03-13 01:26:00,31.3,21.6,30.31,West,270,0.0,0.0,67,0.00,,,0.00,meteohub,2013-03-13 06:26:00,
2013-03-13 01:31:00,31.1,21.7,30.31,WNW,293,0.0,0.0,68,0.00,,,0.00,meteohub,2013-03-13 06:31:00,
2013-03-13 01:36:00,30.9,21.6,30.32,WNW,293,0.0,0.0,68,0.00,,,0.00,meteohub,2013-03-13 06:36:00,
2013-03-13 01:41:00,30.7,21.4,30.32,NW,315,0.0,1.0,68,0.00,,,0.00,meteohub,2013-03-13 06:41:00,
2013-03-13 01:46:00,30.7,21.7,30.32,West,270,0.0,1.0,69,0.00,,,0.00,meteohub,2013-03-13 06:46:00,
2013-03-13 01:51:00,30.4,21.4,30.32,WSW,248,0.0,0.0,69,0.00,,,0.00,meteohub,2013-03-13 06:51:00,
2013-03-13 01:56:00,30.4,21.4,30.32,West,270,0.0,0.0,69,0.00,,,0.00,meteohub,2013-03-13 06:56:00,
2013-03-13 02:01:00,30.4,21.4,30.32,West,270,2.0,0.0,69,0.00,,,0.00,meteohub,2013-03-13 07:01:00,
2013-03-13 02:06:00,29.8,21.2,30.32,WSW,248,0.0,2.0,70,0.00,,,0.00,meteohub,2013-03-13 07:06:00,
2013-03-13 02:11:00,30.0,21.4,30.32,West,270,2.0,2.0,70,0.00,,,0.00,meteohub,2013-03-13 07:11:00,
2013-03-13 02:16:00,29.7,21.4,30.32,WNW,293,0.0,2.0,71,0.00,,,0.00,meteohub,2013-03-13 07:16:00,
2013-03-13 02:21:00,29.7,21.4,30.32,West,270,2.0,3.0,71,0.00,,,0.00,meteohub,2013-03-13 07:21:00,
2013-03-13 02:26:00,29.7,21.4,30.32,West,270,2.0,3.0,71,0.00,,,0.00,meteohub,2013-03-13 07:26:00,
2013-03-13 02:32:00,29.5,21.2,30.32,West,270,2.0,3.0,71,0.00,,,0.00,meteohub,2013-03-13 07:32:00,
2013-03-13 02:37:00,29.5,21.2,30.32,NW,315,3.0,3.0,71,0.00,,,0.00,meteohub,2013-03-13 07:37:00,
2013-03-13 02:42:00,29.7,21.7,30.32,West,270,2.0,3.0,72,0.00,,,0.00,meteohub,2013-03-13 07:42:00,
2013-03-13 02:47:00,29.7,21.7,30.33,NW,315,2.0,3.0,72,0.00,,,0.00,meteohub,2013-03-13 07:47:00,
2013-03-13 02:52:00,29.8,21.9,30.33,WNW,293,5.0,5.0,72,0.00,,,0.00,meteohub,2013-03-13 07:52:00,
2013-03-13 02:57:00,30.0,22.5,30.33,WNW,293,2.0,5.0,73,0.00,,,0.00,meteohub,2013-03-13 07:57:00,
2013-03-13 03:02:00,30.4,22.5,30.33,WSW,248,5.0,5.0,72,0.00,,,0.00,meteohub,2013-03-13 08:02:00,
2013-03-13 03:07:00,30.4,22.5,30.32,West,270,2.0,5.0,72,0.00,,,0.00,meteohub,2013-03-13 08:07:00,
2013-03-13 03:12:00,30.4,22.8,30.32,West,270,2.0,5.0,73,0.00,,,0.00,meteohub,2013-03-13 08:12:00,
2013-03-13 03:17:00,30.7,23.2,30.32,NNW,338,6.0,6.0,73,0.00,,,0.00,meteohub,2013-03-13 08:17:00,
2013-03-13 03:22:00,30.6,23.0,30.32,NW,315,2.0,3.0,73,0.00,,,0.00,meteohub,2013-03-13 08:22:00,
2013-03-13 03:27:00,30.7,23.2,30.32,NW,315,2.0,6.0,73,0.00,,,0.00,meteohub,2013-03-13 08:27:00,
2013-03-13 03:32:00,30.7,23.2,30.32,NNE,23,2.0,6.0,73,0.00,,,0.00,meteohub,2013-03-13 08:32:00,
2013-03-13 03:37:00,30.7,23.2,30.32,West,270,4.0,5.0,73,0.00,,,0.00,meteohub,2013-03-13 08:37:00,
2013-03-13 03:42:00,31.1,23.5,30.32,NW,315,2.0,4.0,73,0.00,,,0.00,meteohub,2013-03-13 08:42:00,
2013-03-13 03:47:00,30.7,22.8,30.33,NNE,23,2.0,7.0,72,0.00,,,0.00,meteohub,2013-03-13 08:47:00,
2013-03-13 03:53:00,30.7,22.8,30.33,SSE,158,3.0,7.0,72,0.00,,,0.00,meteohub,2013-03-13 08:53:00,
2013-03-13 03:57:00,30.6,22.6,30.33,NNW,338,4.0,6.0,72,0.00,,,0.00,meteohub,2013-03-13 08:57:00,
2013-03-13 04:02:00,30.6,22.6,30.33,NE,45,3.0,6.0,72,0.00,,,0.00,meteohub,2013-03-13 09:02:00,
2013-03-13 04:07:00,30.4,22.8,30.32,NW,315,4.0,5.0,73,0.00,,,0.00,meteohub,2013-03-13 09:07:00,
2013-03-13 04:13:00,30.2,22.6,30.32,West,270,4.0,5.0,73,0.00,,,0.00,meteohub,2013-03-13 09:13:00,
2013-03-13 04:18:00,30.4,22.8,30.32,NW,315,2.0,4.0,73,0.00,,,0.00,meteohub,2013-03-13 09:18:00,
2013-03-13 04:23:00,30.0,22.5,30.33,ENE,68,3.0,4.0,73,0.00,,,0.00,meteohub,2013-03-13 09:23:00,
2013-03-13 04:28:00,29.8,22.3,30.33,NW,315,2.0,4.0,73,0.00,,,0.00,meteohub,2013-03-13 09:28:00,
2013-03-13 04:33:00,29.7,22.1,30.33,NNW,338,0.0,3.0,73,0.00,,,0.00,meteohub,2013-03-13 09:33:00,
2013-03-13 04:38:00,29.7,22.1,30.33,SW,225,4.0,4.0,73,0.00,,,0.00,meteohub,2013-03-13 09:38:00,
2013-03-13 04:43:00,29.7,22.1,30.33,WNW,293,3.0,4.0,73,0.00,,,0.00,meteohub,2013-03-13 09:43:00,
2013-03-13 04:48:00,29.3,21.7,30.32,West,270,3.0,4.0,73,0.00,,,0.00,meteohub,2013-03-13 09:48:00,
2013-03-13 04:53:00,29.3,21.7,30.32,NW,315,2.0,4.0,73,0.00,,,0.00,meteohub,2013-03-13 09:53:00,
2013-03-13 04:58:00,29.3,21.7,30.32,NW,315,6.0,6.0,73,0.00,,,0.00,meteohub,2013-03-13 09:58:00,
2013-03-13 05:03:00,29.1,21.6,30.33,NNE,23,2.0,6.0,73,0.00,,,0.00,meteohub,2013-03-13 10:03:00,
2013-03-13 05:08:00,28.9,21.4,30.32,West,270,4.0,6.0,73,0.00,,,0.00,meteohub,2013-03-13 10:08:00,
2013-03-13 05:13:00,28.9,21.4,30.32,NNW,338,4.0,6.0,73,0.00,,,0.00,meteohub,2013-03-13 10:13:00,
2013-03-13 05:18:00,28.9,21.4,30.32,WSW,248,8.0,8.0,73,0.00,,,0.00,meteohub,2013-03-13 10:18:00,
2013-03-13 05:23:00,28.8,21.2,30.32,North,0,2.0,8.0,73,0.00,,,0.00,meteohub,2013-03-13 10:23:00,
2013-03-13 05:28:00,28.6,21.0,30.34,WSW,248,6.0,8.0,73,0.00,,,0.00,meteohub,2013-03-13 10:28:00,
2013-03-13 05:33:00,28.6,21.4,30.34,WNW,293,7.0,8.0,74,0.00,,,0.00,meteohub,2013-03-13 10:33:00,
2013-03-13 05:38:00,28.6,21.0,30.34,WNW,293,3.0,7.0,73,0.00,,,0.00,meteohub,2013-03-13 10:38:00,
2013-03-13 05:43:00,28.4,20.8,30.34,WNW,293,7.0,7.0,73,0.00,,,0.00,meteohub,2013-03-13 10:43:00,
2013-03-13 05:48:00,28.2,21.0,30.35,WNW,293,3.0,7.0,74,0.00,,,0.00,meteohub,2013-03-13 10:48:00,
2013-03-13 05:53:00,28.2,20.7,30.35,North,0,1.0,7.0,73,0.00,,,0.00,meteohub,2013-03-13 10:53:00,
2013-03-13 05:58:00,28.2,21.0,30.35,NW,315,1.0,7.0,74,0.00,,,0.00,meteohub,2013-03-13 10:58:00,
2013-03-13 06:03:00,28.0,20.8,30.36,NNW,338,4.0,4.0,74,0.00,,,0.00,meteohub,2013-03-13 11:03:00,
2013-03-13 06:08:00,28.2,21.0,30.36,West,270,3.0,3.0,74,0.00,,,0.00,meteohub,2013-03-13 11:08:00,
2013-03-13 06:13:00,27.9,20.7,30.36,West,270,5.0,6.0,74,0.00,,,0.00,meteohub,2013-03-13 11:13:00,
2013-03-13 06:18:00,27.7,20.5,30.36,WSW,248,3.0,6.0,74,0.00,,,0.00,meteohub,2013-03-13 11:18:00,
2013-03-13 06:23:00,27.9,20.7,30.36,NNW,338,1.0,8.0,74,0.00,,,0.00,meteohub,2013-03-13 11:23:00,
2013-03-13 06:28:00,27.5,20.3,30.37,North,0,6.0,8.0,74,0.00,,,0.00,meteohub,2013-03-13 11:28:00,
2013-03-13 06:33:00,27.5,20.7,30.37,NNW,338,5.0,6.0,75,0.00,,,0.00,meteohub,2013-03-13 11:33:00,
2013-03-13 06:38:00,27.5,20.7,30.37,NNW,338,5.0,6.0,75,0.00,,,0.00,meteohub,2013-03-13 11:38:00,
2013-03-13 06:43:00,27.5,20.7,30.38,NW,315,0.0,6.0,75,0.00,,,0.00,meteohub,2013-03-13 11:43:00,
2013-03-13 06:48:00,27.5,20.7,30.38,SSW,203,2.0,5.0,75,0.00,,,0.00,meteohub,2013-03-13 11:48:00,
2013-03-13 06:53:00,27.1,20.3,30.38,North,0,0.0,5.0,75,0.00,,,0.00,meteohub,2013-03-13 11:53:00,
2013-03-13 06:58:00,27.1,20.3,30.38,NW,315,3.0,3.0,75,0.00,,,0.00,meteohub,2013-03-13 11:58:00,
2013-03-13 07:03:00,27.0,20.1,30.38,NW,315,0.0,3.0,75,0.00,,,0.00,meteohub,2013-03-13 12:03:00,
2013-03-13 07:08:00,27.1,20.3,30.38,North,0,0.0,3.0,75,0.00,,,0.00,meteohub,2013-03-13 12:08:00,
2013-03-13 07:13:00,26.8,19.9,30.38,NNE,23,0.0,3.0,75,0.00,,,0.00,meteohub,2013-03-13 12:13:00,
2013-03-13 07:18:00,26.8,19.9,30.38,NNE,23,0.0,2.0,75,0.00,,,0.00,meteohub,2013-03-13 12:18:00,
2013-03-13 07:23:00,26.6,19.8,30.40,NE,45,0.0,2.0,75,0.00,,,0.00,meteohub,2013-03-13 12:23:00,
2013-03-13 07:28:00,26.8,20.3,30.40,NNW,338,3.0,3.0,76,0.00,,,0.00,meteohub,2013-03-13 12:28:00,
2013-03-13 07:33:00,26.8,20.3,30.40,NW,315,0.0,3.0,76,0.00,,,0.00,meteohub,2013-03-13 12:33:00,
2013-03-13 07:38:00,26.8,20.3,30.40,NE,45,4.0,4.0,76,0.00,,,0.00,meteohub,2013-03-13 12:38:00,
2013-03-13 07:43:00,26.4,19.9,30.44,NW,315,2.0,3.0,76,0.00,,,0.00,meteohub,2013-03-13 12:43:00,
2013-03-13 07:48:00,26.4,19.9,30.44,West,270,4.0,4.0,76,0.00,,,0.00,meteohub,2013-03-13 12:48:00,
2013-03-13 07:53:00,26.4,19.9,30.44,NW,315,0.0,4.0,76,0.00,,,0.00,meteohub,2013-03-13 12:53:00,
2013-03-13 07:58:00,26.2,19.8,30.44,NNW,338,0.0,4.0,76,0.00,,,0.00,meteohub,2013-03-13 12:58:00,
2013-03-13 08:03:00,26.4,19.9,30.42,West,270,2.0,5.0,76,0.00,,,0.00,meteohub,2013-03-13 13:03:00,
2013-03-13 08:08:00,26.4,19.9,30.42,West,270,0.0,5.0,76,0.00,,,0.00,meteohub,2013-03-13 13:08:00,
2013-03-13 08:13:00,27.0,20.5,30.41,West,270,4.0,4.0,76,0.00,,,0.00,meteohub,2013-03-13 13:13:00,
2013-03-13 08:18:00,27.3,21.0,30.41,WSW,248,7.0,7.0,77,0.00,,,0.00,meteohub,2013-03-13 13:18:00,
2013-03-13 08:24:00,28.2,21.9,30.40,NW,315,4.0,7.0,77,0.00,,,0.00,meteohub,2013-03-13 13:24:00,
2013-03-13 08:29:00,28.9,22.6,30.40,WSW,248,4.0,7.0,77,0.00,,,0.00,meteohub,2013-03-13 13:29:00,
2013-03-13 08:34:00,30.0,23.4,30.40,West,270,3.0,7.0,76,0.00,,,0.00,meteohub,2013-03-13 13:34:00,
2013-03-13 08:39:00,31.1,24.1,30.39,NW,315,6.0,6.0,75,0.00,,,0.00,meteohub,2013-03-13 13:39:00,
2013-03-13 08:44:00,31.8,24.8,30.40,WNW,293,4.0,6.0,75,0.00,,,0.00,meteohub,2013-03-13 13:44:00,
2013-03-13 08:49:00,32.5,25.2,30.40,WNW,293,5.0,6.0,74,0.00,,,0.00,meteohub,2013-03-13 13:49:00,
2013-03-13 08:54:00,33.3,25.5,30.40,North,0,3.0,6.0,73,0.00,,,0.00,meteohub,2013-03-13 13:54:00,
2013-03-13 08:59:00,33.6,25.9,30.40,NW,315,4.0,5.0,73,0.00,,,0.00,meteohub,2013-03-13 13:59:00,
2013-03-13 09:04:00,34.3,25.9,30.41,NW,315,4.0,6.0,71,0.00,,,0.00,meteohub,2013-03-13 14:04:00,
2013-03-13 09:09:00,34.7,25.9,30.41,WSW,248,4.0,6.0,70,0.00,,,0.00,meteohub,2013-03-13 14:09:00,
2013-03-13 09:14:00,35.4,26.2,30.41,West,270,5.0,6.0,69,0.00,,,0.00,meteohub,2013-03-13 14:14:00,
2013-03-13 09:19:00,35.1,25.5,30.41,NW,315,4.0,10.0,68,0.00,,,0.00,meteohub,2013-03-13 14:19:00,
2013-03-13 09:24:00,35.1,25.2,30.40,South,180,1.0,10.0,67,0.00,,,0.00,meteohub,2013-03-13 14:24:00,
2013-03-13 09:29:00,35.4,25.5,30.40,WNW,293,9.0,10.0,67,0.00,,,0.00,meteohub,2013-03-13 14:29:00,
2013-03-13 09:34:00,35.4,25.5,30.40,WNW,293,5.0,10.0,67,0.00,,,0.00,meteohub,2013-03-13 14:34:00,
2013-03-13 09:39:00,35.6,25.7,30.40,NE,45,3.0,9.0,67,0.00,,,0.00,meteohub,2013-03-13 14:39:00,
2013-03-13 09:44:00,36.1,26.2,30.41,South,180,2.0,9.0,67,0.00,,,0.00,meteohub,2013-03-13 14:44:00,
2013-03-13 09:49:00,36.5,26.6,30.41,West,270,9.0,9.0,67,0.00,,,0.00,meteohub,2013-03-13 14:49:00,
2013-03-13 09:54:00,36.5,26.2,30.41,NNW,338,2.0,9.0,66,0.00,,,0.00,meteohub,2013-03-13 14:54:00,
2013-03-13 09:59:00,36.7,26.1,30.41,NW,315,6.0,10.0,65,0.00,,,0.00,meteohub,2013-03-13 14:59:00,
2013-03-13 10:04:00,36.3,25.7,30.42,SW,225,4.0,10.0,65,0.00,,,0.00,meteohub,2013-03-13 15:04:00,
2013-03-13 10:09:00,36.3,25.7,30.42,NW,315,0.0,10.0,65,0.00,,,0.00,meteohub,2013-03-13 15:09:00,
2013-03-13 10:14:00,36.9,26.2,30.42,West,270,9.0,9.0,65,0.00,,,0.00,meteohub,2013-03-13 15:14:00,
2013-03-13 10:19:00,37.0,26.8,30.42,NE,45,1.0,5.0,66,0.00,,,0.00,meteohub,2013-03-13 15:19:00,
2013-03-13 10:24:00,37.8,27.1,30.43,WSW,248,9.0,9.0,65,0.00,,,0.00,meteohub,2013-03-13 15:24:00,
2013-03-13 10:29:00,37.8,27.1,30.43,SE,135,3.0,9.0,65,0.00,,,0.00,meteohub,2013-03-13 15:29:00,
2013-03-13 10:34:00,38.1,26.6,30.42,North,0,3.0,9.0,63,0.00,,,0.00,meteohub,2013-03-13 15:34:00,
2013-03-13 10:39:00,38.5,26.6,30.42,NW,315,2.0,9.0,62,0.00,,,0.00,meteohub,2013-03-13 15:39:00,
2013-03-13 10:44:00,38.5,26.6,30.46,NW,315,4.0,4.0,62,0.00,,,0.00,meteohub,2013-03-13 15:44:00,
2013-03-13 10:49:00,38.7,26.8,30.46,NNE,23,2.0,10.0,62,0.00,,,0.00,meteohub,2013-03-13 15:49:00,
2013-03-13 10:54:00,39.0,26.8,30.46,NNW,338,2.0,10.0,61,0.00,,,0.00,meteohub,2013-03-13 15:54:00,
2013-03-13 10:59:00,39.4,27.1,30.46,NNE,23,2.0,10.0,61,0.00,,,0.00,meteohub,2013-03-13 15:59:00,
2013-03-13 11:04:00,39.7,27.3,30.48,ESE,113,4.0,5.0,61,0.00,,,0.00,meteohub,2013-03-13 16:04:00,
2013-03-13 11:09:00,39.9,27.5,30.47,WSW,248,4.0,6.0,61,0.00,,,0.00,meteohub,2013-03-13 16:09:00,
2013-03-13 11:14:00,40.1,27.7,30.47,SW,225,1.0,6.0,61,0.00,,,0.00,meteohub,2013-03-13 16:14:00,
2013-03-13 11:19:00,40.3,27.5,30.47,West,270,11.0,11.0,60,0.00,,,0.00,meteohub,2013-03-13 16:19:00,
2013-03-13 11:24:00,40.1,27.0,30.47,NNE,23,7.0,11.0,59,0.00,,,0.00,meteohub,2013-03-13 16:24:00,
2013-03-13 11:29:00,40.1,27.0,30.47,WSW,248,7.0,11.0,59,0.00,,,0.00,meteohub,2013-03-13 16:29:00,
2013-03-13 11:34:00,39.7,27.0,30.48,NW,315,4.0,11.0,60,0.00,,,0.00,meteohub,2013-03-13 16:34:00,
2013-03-13 11:39:00,39.9,27.1,30.47,SW,225,7.0,8.0,60,0.00,,,0.00,meteohub,2013-03-13 16:39:00,
2013-03-13 11:44:00,39.9,27.1,30.47,NNW,338,3.0,10.0,60,0.00,,,0.00,meteohub,2013-03-13 16:44:00,
2013-03-13 11:49:00,40.1,27.0,30.47,WNW,293,0.0,10.0,59,0.00,,,0.00,meteohub,2013-03-13 16:49:00,
2013-03-13 11:54:00,40.1,26.6,30.47,WNW,293,3.0,9.0,58,0.00,,,0.00,meteohub,2013-03-13 16:54:00,
2013-03-13 11:59:00,39.9,26.4,30.47,WNW,293,4.0,9.0,58,0.00,,,0.00,meteohub,2013-03-13 16:59:00,
2013-03-13 12:04:00,39.7,26.2,30.48,SW,225,3.0,7.0,58,0.00,,,0.00,meteohub,2013-03-13 17:04:00,
2013-03-13 12:09:00,39.7,26.2,30.48,NW,315,7.0,7.0,58,0.00,,,0.00,meteohub,2013-03-13 17:09:00,
2013-03-13 12:14:00,39.9,26.8,30.47,NE,45,2.0,4.0,59,0.00,,,0.00,meteohub,2013-03-13 17:14:00,
2013-03-13 12:19:00,40.1,27.0,30.47,West,270,7.0,7.0,59,0.00,,,0.00,meteohub,2013-03-13 17:19:00,
2013-03-13 12:24:00,40.3,27.1,30.47,WNW,293,0.0,7.0,59,0.00,,,0.00,meteohub,2013-03-13 17:24:00,
2013-03-13 12:29:00,40.6,27.5,30.47,WNW,293,7.0,7.0,59,0.00,,,0.00,meteohub,2013-03-13 17:29:00,
2013-03-13 12:34:00,40.8,27.7,30.47,WSW,248,7.0,7.0,59,0.00,,,0.00,meteohub,2013-03-13 17:34:00,
2013-03-13 12:39:00,41.2,27.5,30.47,West,270,6.0,7.0,58,0.00,,,0.00,meteohub,2013-03-13 17:39:00,
2013-03-13 12:44:00,41.2,27.5,30.47,NNE,23,2.0,7.0,58,0.00,,,0.00,meteohub,2013-03-13 17:44:00,
2013-03-13 12:49:00,41.2,27.1,30.47,NE,45,2.0,7.0,57,0.00,,,0.00,meteohub,2013-03-13 17:49:00,
2013-03-13 12:54:00,41.4,27.3,30.47,WNW,293,0.0,6.0,57,0.00,,,0.00,meteohub,2013-03-13 17:54:00,
2013-03-13 12:59:00,41.7,28.0,30.46,NNE,23,2.0,6.0,58,0.00,,,0.00,meteohub,2013-03-13 17:59:00,
2013-03-13 13:04:00,42.3,28.0,30.47,WNW,293,2.0,4.0,57,0.00,,,0.00,meteohub,2013-03-13 18:04:00,
2013-03-13 13:09:00,42.6,28.4,30.47,NNW,338,2.0,4.0,57,0.00,,,0.00,meteohub,2013-03-13 18:09:00,
2013-03-13 13:14:00,42.8,28.6,30.46,NNE,23,2.0,4.0,57,0.00,,,0.00,meteohub,2013-03-13 18:14:00,
2013-03-13 13:19:00,43.2,28.6,30.46,WSW,248,4.0,4.0,56,0.00,,,0.00,meteohub,2013-03-13 18:19:00,
2013-03-13 13:24:00,43.3,28.2,30.45,ENE,68,3.0,7.0,55,0.00,,,0.00,meteohub,2013-03-13 18:24:00,
2013-03-13 13:29:00,43.0,27.5,30.45,NNW,338,2.0,7.0,54,0.00,,,0.00,meteohub,2013-03-13 18:29:00,
2013-03-13 13:34:00,43.3,28.2,30.45,West,270,7.0,7.0,55,0.00,,,0.00,meteohub,2013-03-13 18:34:00,
2013-03-13 13:39:00,43.7,28.6,30.45,West,270,7.0,7.0,55,0.00,,,0.00,meteohub,2013-03-13 18:39:00,
2013-03-13 13:45:00,44.1,28.9,30.45,NE,45,0.0,7.0,55,0.00,,,0.00,meteohub,2013-03-13 18:45:00,
2013-03-13 13:50:00,44.4,29.3,30.45,WSW,248,5.0,7.0,55,0.00,,,0.00,meteohub,2013-03-13 18:50:00,
2013-03-13 13:55:00,44.4,29.3,30.45,NNE,23,3.0,7.0,55,0.00,,,0.00,meteohub,2013-03-13 18:55:00,
2013-03-13 14:00:00,44.6,29.5,30.44,WNW,293,4.0,7.0,55,0.00,,,0.00,meteohub,2013-03-13 19:00:00,
2013-03-13 14:05:00,45.1,29.5,30.44,NNE,23,4.0,7.0,54,0.00,,,0.00,meteohub,2013-03-13 19:05:00,
2013-03-13 14:10:00,45.1,29.5,30.44,ENE,68,5.0,7.0,54,0.00,,,0.00,meteohub,2013-03-13 19:10:00,
2013-03-13 14:15:00,45.5,29.8,30.43,NNW,338,2.0,7.0,54,0.00,,,0.00,meteohub,2013-03-13 19:15:00,
2013-03-13 14:20:00,45.7,30.4,30.43,SW,225,9.0,9.0,55,0.00,,,0.00,meteohub,2013-03-13 19:20:00,
2013-03-13 14:25:00,45.9,30.6,30.43,WSW,248,4.0,6.0,55,0.00,,,0.00,meteohub,2013-03-13 19:25:00,
2013-03-13 14:30:00,46.0,30.4,30.43,SSE,158,2.0,9.0,54,0.00,,,0.00,meteohub,2013-03-13 19:30:00,
2013-03-13 14:35:00,46.0,30.4,30.43,NW,315,6.0,9.0,54,0.00,,,0.00,meteohub,2013-03-13 19:35:00,
2013-03-13 14:40:00,46.2,30.0,30.43,North,0,5.0,14.0,53,0.00,,,0.00,meteohub,2013-03-13 19:40:00,
2013-03-13 14:45:00,46.4,30.7,30.42,WSW,248,9.0,14.0,54,0.00,,,0.00,meteohub,2013-03-13 19:45:00,
2013-03-13 14:50:00,46.6,30.4,30.42,WSW,248,3.0,14.0,53,0.00,,,0.00,meteohub,2013-03-13 19:50:00,
2013-03-13 14:55:00,46.4,30.2,30.42,West,270,7.0,10.0,53,0.00,,,0.00,meteohub,2013-03-13 19:55:00,
2013-03-13 15:00:00,46.6,29.8,30.42,NW,315,3.0,10.0,52,0.00,,,0.00,meteohub,2013-03-13 20:00:00,
2013-03-13 15:05:00,46.6,29.5,30.43,West,270,9.0,9.0,51,0.00,,,0.00,meteohub,2013-03-13 20:05:00,
2013-03-13 15:10:00,46.9,29.8,30.43,NW,315,4.0,9.0,51,0.00,,,0.00,meteohub,2013-03-13 20:10:00,
2013-03-13 15:15:00,46.9,30.2,30.43,West,270,4.0,9.0,52,0.00,,,0.00,meteohub,2013-03-13 20:15:00,
2013-03-13 15:20:00,47.1,29.8,30.43,WNW,293,4.0,8.0,51,0.00,,,0.00,meteohub,2013-03-13 20:20:00,
2013-03-13 15:25:00,47.3,30.0,30.40,NW,315,7.0,7.0,51,0.00,,,0.00,meteohub,2013-03-13 20:25:00,
2013-03-13 15:30:00,47.7,30.4,30.40,NW,315,4.0,8.0,51,0.00,,,0.00,meteohub,2013-03-13 20:30:00,
2013-03-13 15:35:00,47.5,30.2,30.40,NW,315,6.0,9.0,51,0.00,,,0.00,meteohub,2013-03-13 20:35:00,
2013-03-13 15:40:00,48.0,30.7,30.40,WNW,293,2.0,9.0,51,0.00,,,0.00,meteohub,2013-03-13 20:40:00,
2013-03-13 15:45:00,48.4,31.1,30.40,NW,315,5.0,6.0,51,0.00,,,0.00,meteohub,2013-03-13 20:45:00,
2013-03-13 15:50:00,48.4,30.6,30.40,NW,315,3.0,5.0,50,0.00,,,0.00,meteohub,2013-03-13 20:50:00,
2013-03-13 15:55:00,48.4,30.6,30.40,West,270,8.0,9.0,50,0.00,,,0.00,meteohub,2013-03-13 20:55:00,
2013-03-13 16:00:00,48.6,30.7,30.40,WSW,248,8.0,9.0,50,0.00,,,0.00,meteohub,2013-03-13 21:00:00,
2013-03-13 16:05:00,48.6,30.7,30.40,WSW,248,5.0,8.0,50,0.00,,,0.00,meteohub,2013-03-13 21:05:00,
2013-03-13 16:10:00,48.4,30.0,30.40,NNE,23,3.0,8.0,49,0.00,,,0.00,meteohub,2013-03-13 21:10:00,
2013-03-13 16:15:00,48.4,30.0,30.40,West,270,3.0,8.0,49,0.00,,,0.00,meteohub,2013-03-13 21:15:00,
2013-03-13 16:20:00,48.4,30.0,30.40,NE,45,0.0,5.0,49,0.00,,,0.00,meteohub,2013-03-13 21:20:00,
2013-03-13 16:25:00,48.4,30.0,30.39,NNW,338,4.0,4.0,49,0.00,,,0.00,meteohub,2013-03-13 21:25:00,
2013-03-13 16:30:00,48.4,30.0,30.39,SE,135,2.0,6.0,49,0.00,,,0.00,meteohub,2013-03-13 21:30:00,
2013-03-13 16:35:00,48.4,29.7,30.39,West,270,5.0,6.0,48,0.00,,,0.00,meteohub,2013-03-13 21:35:00,
2013-03-13 16:40:00,48.2,29.5,30.39,North,0,1.0,6.0,48,0.00,,,0.00,meteohub,2013-03-13 21:40:00,
2013-03-13 16:45:00,48.4,30.0,30.39,NNW,338,3.0,5.0,49,0.00,,,0.00,meteohub,2013-03-13 21:45:00,
2013-03-13 16:50:00,48.4,30.0,30.39,West,270,2.0,5.0,49,0.00,,,0.00,meteohub,2013-03-13 21:50:00,
2013-03-13 16:55:00,48.4,30.0,30.39,South,180,0.0,4.0,49,0.00,,,0.00,meteohub,2013-03-13 21:55:00,
2013-03-13 16:57:00,48.4,30.0,30.39,NNW,338,3.0,4.0,49,0.00,,,0.00,meteohub,2013-03-13 21:57:00,
2013-03-13 17:02:00,48.4,30.0,30.39,ENE,68,0.0,3.0,49,0.00,,,0.00,meteohub,2013-03-13 22:02:00,
2013-03-13 17:07:00,48.6,29.3,30.38,NW,315,3.0,5.0,47,0.00,,,0.00,meteohub,2013-03-13 22:07:00,
2013-03-13 17:12:00,48.4,29.1,30.38,NW,315,2.0,5.0,47,0.00,,,0.00,meteohub,2013-03-13 22:12:00,
2013-03-13 17:17:00,48.2,28.9,30.38,ENE,68,0.0,3.0,47,0.00,,,0.00,meteohub,2013-03-13 22:17:00,
2013-03-13 17:22:00,48.4,29.1,30.38,NW,315,1.0,3.0,47,0.00,,,0.00,meteohub,2013-03-13 22:22:00,
2013-03-13 17:27:00,48.4,29.1,30.39,WNW,293,5.0,5.0,47,0.00,,,0.00,meteohub,2013-03-13 22:27:00,
2013-03-13 17:32:00,48.0,27.7,30.39,North,0,2.0,5.0,45,0.00,,,0.00,meteohub,2013-03-13 22:32:00,
2013-03-13 17:37:00,48.0,27.7,30.39,North,0,2.0,5.0,45,0.00,,,0.00,meteohub,2013-03-13 22:37:00,
2013-03-13 17:42:00,48.2,28.4,30.39,East,90,2.0,5.0,46,0.00,,,0.00,meteohub,2013-03-13 22:42:00,
2013-03-13 17:47:00,48.0,28.2,30.38,SE,135,0.0,4.0,46,0.00,,,0.00,meteohub,2013-03-13 22:47:00,
2013-03-13 17:52:00,47.8,27.5,30.38,NW,315,2.0,4.0,45,0.00,,,0.00,meteohub,2013-03-13 22:52:00,
2013-03-13 17:57:00,47.8,27.5,30.38,NW,315,0.0,4.0,45,0.00,,,0.00,meteohub,2013-03-13 22:57:00,
2013-03-13 18:02:00,47.7,26.8,30.38,NW,315,0.0,4.0,44,0.00,,,0.00,meteohub,2013-03-13 23:02:00,
2013-03-13 18:07:00,47.7,27.3,30.34,ENE,68,0.0,2.0,45,0.00,,,0.00,meteohub,2013-03-13 23:07:00,
2013-03-13 18:12:00,47.7,27.3,30.34,NNE,23,2.0,2.0,45,0.00,,,0.00,meteohub,2013-03-13 23:12:00,
2013-03-13 18:17:00,47.3,27.0,30.34,NNE,23,0.0,3.0,45,0.00,,,0.00,meteohub,2013-03-13 23:17:00,
2013-03-13 18:22:00,47.3,27.5,30.34,WSW,248,2.0,3.0,46,0.00,,,0.00,meteohub,2013-03-13 23:22:00,
2013-03-13 18:27:00,47.7,27.9,30.34,NNW,338,4.0,4.0,46,0.00,,,0.00,meteohub,2013-03-13 23:27:00,
2013-03-13 18:32:00,47.3,27.5,30.34,West,270,4.0,5.0,46,0.00,,,0.00,meteohub,2013-03-13 23:32:00,
2013-03-13 18:37:00,47.1,27.3,30.34,WSW,248,5.0,5.0,46,0.00,,,0.00,meteohub,2013-03-13 23:37:00,
2013-03-13 18:42:00,47.1,27.3,30.34,WSW,248,2.0,5.0,46,0.00,,,0.00,meteohub,2013-03-13 23:42:00,
2013-03-13 18:47:00,46.9,27.3,30.35,WSW,248,2.0,5.0,46,0.00,,,0.00,meteohub,2013-03-13 23:47:00,
2013-03-13 18:52:00,46.6,27.0,30.35,WSW,248,2.0,5.0,46,0.00,,,0.00,meteohub,2013-03-13 23:52:00,
2013-03-13 18:57:00,46.4,26.8,30.35,WSW,248,0.0,3.0,46,0.00,,,0.00,meteohub,2013-03-13 23:57:00,
2013-03-13 19:02:00,46.2,27.1,30.35,West,270,0.0,2.0,47,0.00,,,0.00,meteohub,2013-03-14 00:02:00,
2013-03-13 19:07:00,45.9,26.8,30.35,ENE,68,0.0,2.0,47,0.00,,,0.00,meteohub,2013-03-14 00:07:00,
2013-03-13 19:13:00,45.9,26.8,30.35,SW,225,0.0,0.0,47,0.00,,,0.00,meteohub,2013-03-14 00:13:00,
2013-03-13 19:18:00,45.1,26.1,30.35,SW,225,0.0,0.0,47,0.00,,,0.00,meteohub,2013-03-14 00:18:00,
2013-03-13 19:23:00,44.8,25.7,30.35,SW,225,0.0,0.0,47,0.00,,,0.00,meteohub,2013-03-14 00:23:00,
2013-03-13 19:28:00,44.2,25.7,30.35,South,180,0.0,0.0,48,0.00,,,0.00,meteohub,2013-03-14 00:28:00,
2013-03-13 19:33:00,43.5,25.2,30.35,South,180,0.0,0.0,48,0.00,,,0.00,meteohub,2013-03-14 00:33:00,
2013-03-13 19:38:00,43.0,24.6,30.35,South,180,0.0,0.0,48,0.00,,,0.00,meteohub,2013-03-14 00:38:00,
2013-03-13 19:43:00,42.6,24.8,30.36,ESE,113,0.0,0.0,49,0.00,,,0.00,meteohub,2013-03-14 00:43:00,
2013-03-13 19:48:00,42.3,25.0,30.36,ESE,113,1.0,0.0,50,0.00,,,0.00,meteohub,2013-03-14 00:48:00,
2013-03-13 19:53:00,41.9,24.6,30.36,ESE,113,0.0,1.0,50,0.00,,,0.00,meteohub,2013-03-14 00:53:00,
2013-03-13 19:58:00,41.4,24.6,30.36,ESE,113,0.0,1.0,51,0.00,,,0.00,meteohub,2013-03-14 00:58:00,
2013-03-13 20:03:00,40.6,24.4,30.35,ESE,113,0.0,1.0,52,0.00,,,0.00,meteohub,2013-03-14 01:03:00,
2013-03-13 20:08:00,40.5,24.3,30.35,ESE,113,0.0,0.0,52,0.00,,,0.00,meteohub,2013-03-14 01:08:00,
2013-03-13 20:13:00,39.9,24.3,30.35,ESE,113,0.0,0.0,53,0.00,,,0.00,meteohub,2013-03-14 01:13:00,
2013-03-13 20:18:00,39.7,24.4,30.36,ENE,68,0.0,0.0,54,0.00,,,0.00,meteohub,2013-03-14 01:18:00,
2013-03-13 20:23:00,39.2,24.4,30.36,ENE,68,0.0,0.0,55,0.00,,,0.00,meteohub,2013-03-14 01:23:00,
2013-03-13 20:28:00,38.7,23.9,30.37,SSE,158,0.0,0.0,55,0.00,,,0.00,meteohub,2013-03-14 01:28:00,
2013-03-13 20:33:00,38.5,24.1,30.37,ENE,68,0.0,0.0,56,0.00,,,0.00,meteohub,2013-03-14 01:33:00,
2013-03-13 20:38:00,37.9,23.7,30.38,SSW,203,0.0,0.0,56,0.00,,,0.00,meteohub,2013-03-14 01:38:00,
2013-03-13 20:43:00,37.6,23.7,30.36,NNE,23,0.0,0.0,57,0.00,,,0.00,meteohub,2013-03-14 01:43:00,
2013-03-13 20:48:00,37.2,23.7,30.36,ESE,113,0.0,0.0,58,0.00,,,0.00,meteohub,2013-03-14 01:48:00,
2013-03-13 20:53:00,37.0,23.7,30.36,ESE,113,0.0,0.0,58,0.00,,,0.00,meteohub,2013-03-14 01:53:00,
2013-03-13 20:58:00,36.9,23.5,30.36,SE,135,0.0,0.0,58,0.00,,,0.00,meteohub,2013-03-14 01:58:00,
2013-03-13 21:03:00,36.3,23.4,30.35,NE,45,0.0,0.0,59,0.00,,,0.00,meteohub,2013-03-14 02:03:00,
2013-03-13 21:08:00,36.3,23.4,30.35,NNE,23,0.0,0.0,59,0.00,,,0.00,meteohub,2013-03-14 02:08:00,
2013-03-13 21:13:00,36.1,23.5,30.35,NNE,23,0.0,0.0,60,0.00,,,0.00,meteohub,2013-03-14 02:13:00,
2013-03-13 21:18:00,35.8,23.7,30.35,SW,225,0.0,0.0,61,0.00,,,0.00,meteohub,2013-03-14 02:18:00,
2013-03-13 21:23:00,35.4,23.4,30.36,ESE,113,0.0,0.0,61,0.00,,,0.00,meteohub,2013-03-14 02:23:00,
2013-03-13 21:28:00,35.1,23.0,30.36,NNW,338,0.0,0.0,61,0.00,,,0.00,meteohub,2013-03-14 02:28:00,
2013-03-13 21:33:00,34.7,23.0,30.37,East,90,0.0,0.0,62,0.00,,,0.00,meteohub,2013-03-14 02:33:00,
2013-03-13 21:39:00,34.2,22.5,30.37,SSE,158,0.0,0.0,62,0.00,,,0.00,meteohub,2013-03-14 02:39:00,
2013-03-13 21:43:00,34.0,22.6,30.37,South,180,0.0,0.0,63,0.00,,,0.00,meteohub,2013-03-14 02:43:00,
2013-03-13 21:48:00,33.6,22.5,30.38,SSE,158,0.0,0.0,63,0.00,,,0.00,meteohub,2013-03-14 02:48:00,
2013-03-13 21:53:00,33.3,22.5,30.38,WSW,248,0.0,0.0,64,0.00,,,0.00,meteohub,2013-03-14 02:53:00,
2013-03-13 21:59:00,33.3,22.5,30.38,WSW,248,0.0,0.0,64,0.00,,,0.00,meteohub,2013-03-14 02:59:00,
2013-03-13 22:04:00,32.7,22.3,30.38,NE,45,0.0,0.0,65,0.00,,,0.00,meteohub,2013-03-14 03:04:00,
2013-03-13 22:09:00,32.9,22.5,30.38,NE,45,0.0,0.0,65,0.00,,,0.00,meteohub,2013-03-14 03:09:00,
2013-03-13 22:14:00,32.7,22.6,30.38,SE,135,0.0,0.0,66,0.00,,,0.00,meteohub,2013-03-14 03:14:00,
2013-03-13 22:19:00,32.5,22.5,30.38,WSW,248,0.0,0.0,66,0.00,,,0.00,meteohub,2013-03-14 03:19:00,
2013-03-13 22:24:00,32.5,22.8,30.39,SE,135,0.0,0.0,67,0.00,,,0.00,meteohub,2013-03-14 03:24:00,
2013-03-13 22:29:00,32.2,22.5,30.39,ENE,68,0.0,0.0,67,0.00,,,0.00,meteohub,2013-03-14 03:29:00,
2013-03-13 22:34:00,32.0,22.3,30.39,ENE,68,0.0,0.0,67,0.00,,,0.00,meteohub,2013-03-14 03:34:00,
2013-03-13 22:39:00,32.2,22.8,30.39,ESE,113,0.0,0.0,68,0.00,,,0.00,meteohub,2013-03-14 03:39:00,
2013-03-13 22:44:00,31.8,22.5,30.39,ESE,113,0.0,0.0,68,0.00,,,0.00,meteohub,2013-03-14 03:44:00,
2013-03-13 22:49:00,31.5,22.1,30.39,ESE,113,0.0,0.0,68,0.00,,,0.00,meteohub,2013-03-14 03:49:00,
2013-03-13 22:54:00,31.3,22.3,30.39,ESE,113,0.0,0.0,69,0.00,,,0.00,meteohub,2013-03-14 03:54:00,
2013-03-13 22:59:00,31.1,22.1,30.39,ESE,113,0.0,0.0,69,0.00,,,0.00,meteohub,2013-03-14 03:59:00,
2013-03-13 23:00:00,31.1,22.1,30.39,ESE,113,0.0,0.0,69,0.00,,,0.00,meteohub,2013-03-14 04:00:00,
2013-03-13 23:01:00,31.1,22.1,30.39,ESE,113,0.0,0.0,69,0.00,,,0.00,meteohub,2013-03-14 04:01:00,
2013-03-13 23:06:00,31.1,22.1,30.39,ESE,113,0.0,0.0,69,0.00,,,0.00,meteohub,2013-03-14 04:06:00,
2013-03-13 23:11:00,31.1,22.5,30.39,ESE,113,0.0,0.0,70,0.00,,,0.00,meteohub,2013-03-14 04:11:00,
2013-03-13 23:16:00,31.1,22.5,30.39,ESE,113,0.0,0.0,70,0.00,,,0.00,meteohub,2013-03-14 04:16:00,
2013-03-13 23:22:00,30.7,22.1,30.39,ESE,113,0.0,0.0,70,0.00,,,0.00,meteohub,2013-03-14 04:22:00,
2013-03-13 23:27:00,30.7,22.5,30.38,SW,225,0.0,0.0,71,0.00,,,0.00,meteohub,2013-03-14 04:27:00,
2013-03-13 23:32:00,30.4,22.1,30.38,SE,135,0.0,0.0,71,0.00,,,0.00,meteohub,2013-03-14 04:32:00,
2013-03-13 23:37:00,30.4,22.1,30.38,SW,225,0.0,0.0,71,0.00,,,0.00,meteohub,2013-03-14 04:37:00,
2013-03-13 23:42:00,30.4,22.1,30.38,SW,225,0.0,0.0,71,0.00,,,0.00,meteohub,2013-03-14 04:42:00,
2013-03-13 23:47:00,30.0,22.1,30.38,SW,225,0.0,0.0,72,0.00,,,0.00,meteohub,2013-03-14 04:47:00,
2013-03-13 23:52:00,29.8,21.9,30.38,ESE,113,0.0,0.0,72,0.00,,,0.00,meteohub,2013-03-14 04:52:00,
2013-03-13 23:57:00,29.8,21.9,30.38,ESE,113,0.0,0.0,72,0.00,,,0.00,meteohub,2013-03-14 04:57:00,